Time;durP1;ratioP1;P1;durP2;ratioP2;P2;SDS_P1;SDS_P2;PMS_P1;PMS_P2;Temp;Humidity;BMP_temperature;BMP_pressure;BME280_temperature;BME280_humidity;BME280_pressure;Samples;Min_cycle;Max_cycle;Signal;HPM_P1;HPM_P2
2022/07/21 00:00:15;;;;;;;;;;;;;;;16.72;61.16;99743.56;4935996;29;1946;-70
2022/07/21 00:02:41;;;;;;;;;;;;;;;16.66;61.32;99746.13;4953207;29;839;-69
2022/07/21 00:05:08;;;;;;;;;;;;;;;16.59;61.87;99737.19;4953245;29;812;-69
2022/07/21 00:07:35;;;;;;;;;;;;;;;16.48;62.15;99734.72;4953177;29;831;-69
2022/07/21 00:10:03;;;;;;;;;;;;;;;16.44;62.58;99734.84;4953132;29;888;-68
2022/07/21 00:12:29;;;;;;;;;;;;;;;16.36;62.58;99727.13;4955784;28;839;-70
2022/07/21 00:14:55;;;;;;;;;;;;;;;16.29;63.09;99725.31;4956872;29;870;-70
2022/07/21 00:17:22;;;;;;;;;;;;;;;16.27;63.21;99728.56;4956808;29;824;-70
2022/07/21 00:19:48;;;;;;;;;;;;;;;16.25;63.43;99719.06;4956630;29;1894;-70
2022/07/21 00:22:15;;;;;;;;;;;;;;;16.22;63.54;99719.97;4956799;29;867;-69
2022/07/21 00:24:41;;;;;;;;;;;;;;;16.19;63.56;99707.69;4956666;29;831;-69
2022/07/21 00:27:08;;;;;;;;;;;;;;;16.19;63.81;99713.25;4939351;29;1310;-70
2022/07/21 00:29:34;;;;;;;;;;;;;;;16.23;63.77;99710.38;4956612;29;827;-70
2022/07/21 00:32:03;;;;;;;;;;;;;;;16.25;63.66;99705.13;4956571;29;851;-71
2022/07/21 00:34:30;;;;;;;;;;;;;;;16.24;63.74;99704.34;4949966;29;1309;-70
2022/07/21 00:36:57;;;;;;;;;;;;;;;16.23;63.49;99704.78;4956484;28;898;-69
2022/07/21 00:39:23;;;;;;;;;;;;;;;16.22;63.46;99697.66;4956431;28;1911;-71
2022/07/21 00:41:50;;;;;;;;;;;;;;;16.18;64.02;99700.56;4956365;28;882;-70
2022/07/21 00:44:24;;;;;;;;;;;;;;;16.14;63.96;99691.50;4956459;28;827;-71
2022/07/21 00:46:50;;;;;;;;;;;;;;;16.12;64.15;99691.16;4956512;28;830;-70
2022/07/21 00:49:18;;;;;;;;;;;;;;;16.09;64.00;99692.84;4956195;28;871;-70
2022/07/21 00:51:45;;;;;;;;;;;;;;;16.08;64.10;99684.91;4956182;28;867;-69
2022/07/21 00:54:12;;;;;;;;;;;;;;;16.07;64.30;99686.16;4956454;28;907;-71
2022/07/21 00:56:39;;;;;;;;;;;;;;;16.04;64.29;99682.22;4956209;28;844;-71
2022/07/21 00:59:06;;;;;;;;;;;;;;;16.06;64.22;99693.72;4956059;28;1882;-70
2022/07/21 01:01:33;;;;;;;;;;;;;;;16.08;64.13;99688.47;4956020;28;816;-70
2022/07/21 01:03:59;;;;;;;;;;;;;;;16.07;64.22;99680.56;4956033;28;854;-70
2022/07/21 01:06:26;;;;;;;;;;;;;;;15.99;64.63;99682.00;4956052;28;811;-71
2022/07/21 01:08:54;;;;;;;;;;;;;;;15.91;64.86;99678.63;4955871;28;803;-71
2022/07/21 01:11:21;;;;;;;;;;;;;;;15.87;65.07;99678.75;4955909;28;792;-70
2022/07/21 01:13:48;;;;;;;;;;;;;;;15.84;65.22;99676.06;4954542;29;1652;-68
2022/07/21 01:16:15;;;;;;;;;;;;;;;15.81;65.45;99680.50;4955824;28;872;-69
2022/07/21 01:18:41;;;;;;;;;;;;;;;15.80;65.33;99672.59;4955614;28;1951;-71
2022/07/21 01:21:27;;;;;;;;;;;;;;;15.76;65.55;99674.69;4955765;28;905;-69
2022/07/21 01:23:54;;;;;;;;;;;;;;;15.69;65.81;99670.84;4955433;28;839;-69
2022/07/21 01:26:21;;;;;;;;;;;;;;;15.63;66.23;99660.69;4955696;28;827;-70
2022/07/21 01:28:48;;;;;;;;;;;;;;;15.57;66.55;99663.22;4955610;28;827;-70
2022/07/21 01:31:15;;;;;;;;;;;;;;;15.50;66.96;99666.22;4955535;28;791;-71
2022/07/21 01:33:43;;;;;;;;;;;;;;;15.42;67.33;99665.59;4955370;28;1227;-70
2022/07/21 01:36:08;;;;;;;;;;;;;;;15.35;67.59;99660.25;4955441;29;795;-70
2022/07/21 01:41:29;;;;;;;;;;;;;;;15.25;68.28;99669.66;4955371;29;673;-70
2022/07/21 01:43:57;;;;;;;;;;;;;;;15.17;68.50;99660.72;4955239;29;840;-69
2022/07/21 01:46:24;;;;;;;;;;;;;;;15.17;68.87;99660.72;4955239;29;819;-70
2022/07/21 01:48:50;;;;;;;;;;;;;;;15.16;68.93;99659.16;4955190;29;852;-70
2022/07/21 01:51:17;;;;;;;;;;;;;;;15.15;68.85;99657.59;4955160;29;815;-69
2022/07/21 01:53:44;;;;;;;;;;;;;;;15.14;68.92;99649.66;4955238;29;1028;-69
2022/07/21 01:56:10;;;;;;;;;;;;;;;15.15;69.06;99649.25;4955028;29;812;-69
2022/07/21 01:58:37;;;;;;;;;;;;;;;15.17;68.83;99648.78;4954886;29;1956;-68
2022/07/21 02:01:04;;;;;;;;;;;;;;;15.16;69.05;99644.44;4954890;29;863;-68
2022/07/21 02:03:30;;;;;;;;;;;;;;;15.11;69.13;99640.19;4954934;29;831;-68
2022/07/21 02:06:02;;;;;;;;;;;;;;;15.02;69.38;99642.81;4954747;29;898;-70
2022/07/21 02:08:29;;;;;;;;;;;;;;;14.90;70.00;99638.75;4954857;29;808;-68
2022/07/21 02:10:55;;;;;;;;;;;;;;;14.79;70.29;99644.56;4954964;29;851;-69
2022/07/21 02:13:23;;;;;;;;;;;;;;;14.68;70.73;99636.50;4954727;29;898;-70
2022/07/21 02:15:49;;;;;;;;;;;;;;;14.80;70.91;99629.44;4954612;29;879;-69
2022/07/21 02:18:16;;;;;;;;;;;;;;;14.96;70.48;99633.44;4954622;29;898;-69
2022/07/21 02:20:44;;;;;;;;;;;;;;;14.94;70.44;99627.53;4954476;29;1891;-68
2022/07/21 02:23:11;;;;;;;;;;;;;;;14.80;70.94;99625.88;4954489;29;800;-68
2022/07/21 02:25:38;;;;;;;;;;;;;;;14.67;71.45;99625.78;4954475;29;1034;-68
2022/07/21 02:28:04;;;;;;;;;;;;;;;14.53;72.10;99628.88;4954361;29;901;-69
2022/07/21 02:30:31;;;;;;;;;;;;;;;14.43;72.59;99619.59;4954389;29;874;-69
2022/07/21 02:32:58;;;;;;;;;;;;;;;14.33;73.15;99621.41;4954089;29;1355;-69
2022/07/21 02:35:24;;;;;;;;;;;;;;;14.17;73.96;99626.94;4953710;28;898;-69
2022/07/21 02:37:51;;;;;;;;;;;;;;;14.03;74.38;99619.69;4954489;29;847;-70
2022/07/21 02:40:18;;;;;;;;;;;;;;;13.97;74.74;99624.19;4954176;29;1976;-69
2022/07/21 02:42:45;;;;;;;;;;;;;;;13.93;75.19;99617.94;4954184;29;812;-69
2022/07/21 02:45:12;;;;;;;;;;;;;;;13.92;75.06;99619.94;4936775;29;1385;-70
2022/07/21 02:47:53;;;;;;;;;;;;;;;13.89;75.22;99612.47;4954018;29;820;-71
2022/07/21 02:50:21;;;;;;;;;;;;;;;13.85;75.62;99615.31;4936822;29;1219;-68
2022/07/21 02:52:47;;;;;;;;;;;;;;;13.84;75.74;99612.97;4954099;29;859;-69
2022/07/21 02:55:14;;;;;;;;;;;;;;;13.82;75.85;99610.59;4954425;29;975;-69
2022/07/21 02:57:40;;;;;;;;;;;;;;;13.87;76.31;99614.91;4953882;29;879;-70
2022/07/21 03:00:08;;;;;;;;;;;;;;;13.92;76.30;99605.25;4953956;29;2221;-70
2022/07/21 03:02:34;;;;;;;;;;;;;;;13.96;76.44;99612.31;4953792;29;831;-71
2022/07/21 03:05:01;;;;;;;;;;;;;;;13.96;75.99;99612.31;4953904;29;792;-70
2022/07/21 03:07:27;;;;;;;;;;;;;;;13.98;75.85;99612.66;4953716;29;1205;-71
2022/07/21 03:09:53;;;;;;;;;;;;;;;14.01;76.29;99599.88;4953838;29;792;-70
2022/07/21 03:12:21;;;;;;;;;;;;;;;14.04;76.09;99599.03;4953743;29;859;-69
2022/07/21 03:14:47;;;;;;;;;;;;;;;14.10;75.89;99602.84;4953909;29;835;-71
2022/07/21 03:17:14;;;;;;;;;;;;;;;14.15;75.79;99604.38;4950196;29;1403;-71
2022/07/21 03:19:40;;;;;;;;;;;;;;;14.19;75.67;99605.03;4953663;29;1957;-70
2022/07/21 03:22:07;;;;;;;;;;;;;;;14.22;75.66;99604.97;4953808;29;854;-70
2022/07/21 03:24:34;;;;;;;;;;;;;;;14.07;75.80;99568.38;4953754;29;820;-71
2022/07/21 03:27:01;;;;;;;;;;;;;;;14.28;75.45;99594.91;4953725;29;823;-71
2022/07/21 03:29:28;;;;;;;;;;;;;;;14.32;75.35;99597.59;4936420;29;883;-70
2022/07/21 03:31:54;;;;;;;;;;;;;;;14.36;75.25;99605.84;4953805;29;819;-70
2022/07/21 03:34:21;;;;;;;;;;;;;;;14.40;75.30;99595.41;4953633;29;1413;-71
2022/07/21 03:36:48;;;;;;;;;;;;;;;14.47;75.19;99595.28;4936460;29;1246;-68
2022/07/21 03:39:14;;;;;;;;;;;;;;;14.57;75.01;99590.69;4953596;29;1965;-71
2022/07/21 03:41:41;;;;;;;;;;;;;;;14.71;74.62;99598.69;4954319;29;788;-71
2022/07/21 03:44:08;;;;;;;;;;;;;;;14.91;73.71;99593.00;4953415;29;890;-69
2022/07/21 03:46:34;;;;;;;;;;;;;;;15.08;73.08;99586.19;4954533;28;823;-69
2022/07/21 03:49:01;;;;;;;;;;;;;;;15.26;72.56;99584.94;4957337;29;824;-70
2022/07/21 03:51:27;;;;;;;;;;;;;;;15.49;71.37;99581.88;4957324;29;925;-70
2022/07/21 04:06:04;;;;;;;;;;;;;;;17.07;64.89;99584.53;4956991;29;633;-72
2022/07/21 04:08:31;;;;;;;;;;;;;;;17.17;64.14;99580.56;4957034;29;878;-71
2022/07/21 04:10:58;;;;;;;;;;;;;;;17.26;63.77;99588.25;4956915;29;815;-70
2022/07/21 04:13:25;;;;;;;;;;;;;;;17.27;63.76;99582.22;4956903;29;835;-70
2022/07/21 04:15:51;;;;;;;;;;;;;;;17.26;63.56;99593.84;4956769;29;855;-68
2022/07/21 04:18:17;;;;;;;;;;;;;;;17.23;63.44;99591.97;4956815;29;888;-71
2022/07/21 04:20:44;;;;;;;;;;;;;;;17.17;63.58;99585.38;4939505;29;1945;-71
2022/07/21 04:23:11;;;;;;;;;;;;;;;17.15;63.64;99591.41;4939458;29;1210;-69
2022/07/21 04:25:38;;;;;;;;;;;;;;;17.17;63.80;99582.59;4939339;29;1148;-70
2022/07/21 04:28:05;;;;;;;;;;;;;;;17.26;63.47;99577.88;4956645;29;797;-68
2022/07/21 04:30:32;;;;;;;;;;;;;;;17.35;63.39;99585.53;4956635;29;956;-68
2022/07/21 04:32:59;;;;;;;;;;;;;;;17.46;62.96;99587.94;4956370;29;1323;-69
2022/07/21 04:35:26;;;;;;;;;;;;;;;17.62;62.61;99584.94;4956749;29;820;-69
2022/07/21 04:37:53;;;;;;;;;;;;;;;17.82;62.37;99595.00;4956456;29;792;-69
2022/07/21 04:40:19;;;;;;;;;;;;;;;17.98;62.08;99586.41;4956426;29;1914;-70
2022/07/21 04:42:45;;;;;;;;;;;;;;;18.12;61.64;99587.88;4956352;29;862;-69
2022/07/21 04:45:13;;;;;;;;;;;;;;;18.27;61.18;99590.91;4956264;29;860;-68
2022/07/21 04:47:51;;;;;;;;;;;;;;;18.39;60.94;99592.00;4956226;29;859;-68
2022/07/21 04:50:18;;;;;;;;;;;;;;;18.51;60.82;99589.09;4956736;29;765;-68
2022/07/21 04:52:44;;;;;;;;;;;;;;;18.71;60.55;99597.09;4956452;29;840;-68
2022/07/21 04:55:12;;;;;;;;;;;;;;;18.94;59.87;99587.31;4956721;29;881;-68
2022/07/21 04:57:40;;;;;;;;;;;;;;;19.05;59.62;99588.91;4955885;28;947;-67
2022/07/21 05:00:08;;;;;;;;;;;;;;;19.16;59.32;99590.00;4956221;29;1887;-68
2022/07/21 05:02:34;;;;;;;;;;;;;;;19.31;59.21;99590.16;4956120;29;800;-68
2022/07/21 05:05:01;;;;;;;;;;;;;;;19.47;58.94;99600.25;4956099;29;824;-69
2022/07/21 05:07:28;;;;;;;;;;;;;;;19.62;58.73;99594.78;4956066;29;824;-69
2022/07/21 05:09:56;;;;;;;;;;;;;;;19.85;58.36;99598.19;4956039;29;835;-70
2022/07/21 05:12:22;;;;;;;;;;;;;;;20.17;58.00;99588.28;4955864;29;847;-68
2022/07/21 05:14:49;;;;;;;;;;;;;;;20.75;55.82;99573.00;4955798;29;955;-69
2022/07/21 05:17:16;;;;;;;;;;;;;;;22.15;49.80;99579.66;4956175;29;883;-69
2022/07/21 05:19:45;;;;;;;;;;;;;;;23.79;45.72;99574.06;4955787;29;1955;-69
2022/07/21 05:25:15;;;;;;;;;;;;;;;25.73;40.35;99572.41;4956034;29;621;-69
2022/07/21 05:27:41;;;;;;;;;;;;;;;26.05;40.16;99570.16;4955548;29;975;-69
2022/07/21 05:30:08;;;;;;;;;;;;;;;26.22;39.07;99572.19;4955729;29;815;-73
2022/07/21 05:32:35;;;;;;;;;;;;;;;26.38;38.94;99562.88;4955741;29;863;-72
2022/07/21 05:35:08;;;;;;;;;;;;;;;26.53;38.37;99561.81;4952601;29;1156;-68
2022/07/21 05:49:45;;;;;;;;;;;;;;;27.83;36.72;99561.94;4955488;29;606;-70
2022/07/21 05:52:12;;;;;;;;;;;;;;;28.20;36.81;99561.38;4955155;28;831;-69
2022/07/21 05:54:43;;;;;;;;;;;;;;;28.51;35.58;99559.28;4953791;29;935;-73
2022/07/21 05:57:10;;;;;;;;;;;;;;;28.91;34.83;99565.25;4955284;28;1081;-71
2022/07/21 05:59:37;;;;;;;;;;;;;;;29.63;33.69;99565.56;4953508;28;1915;-70
2022/07/21 06:02:04;;;;;;;;;;;;;;;30.10;32.53;99530.13;4955160;28;854;-74
2022/07/21 06:04:32;;;;;;;;;;;;;;;30.35;32.04;99569.88;4953555;29;1285;-69
2022/07/21 06:06:58;;;;;;;;;;;;;;;30.58;32.19;99561.63;4954904;28;870;-71
2022/07/21 06:09:26;;;;;;;;;;;;;;;30.88;31.90;99572.75;4954228;28;796;-74
2022/07/21 06:11:53;;;;;;;;;;;;;;;30.65;31.34;99569.53;4954865;28;1104;-69
2022/07/21 06:17:24;;;;;;;;;;;;;;;30.83;30.89;99559.31;4954688;29;607;-68
2022/07/21 06:19:53;;;;;;;;;;;;;;;31.04;30.54;99567.97;4954646;28;1890;-74
2022/07/21 06:22:19;;;;;;;;;;;;;;;31.18;30.15;99557.31;4953602;29;1189;-70
2022/07/21 06:24:45;;;;;;;;;;;;;;;31.53;30.57;99561.72;4953368;29;895;-68
2022/07/21 06:27:15;;;;;;;;;;;;;;;31.80;29.48;99562.38;4954482;28;870;-69
2022/07/21 06:29:43;;;;;;;;;;;;;;;31.76;30.19;99561.94;4955189;28;768;-71
2022/07/21 06:32:29;;;;;;;;;;;;;;;31.53;30.50;99562.47;4954847;28;879;-69
2022/07/21 06:34:57;;;;;;;;;;;;;;;31.62;29.60;99566.97;4954214;28;1247;-71
2022/07/21 06:37:37;;;;;;;;;;;;;;;31.58;30.68;99566.53;4954417;29;874;-69
2022/07/21 06:40:04;;;;;;;;;;;;;;;31.62;30.37;99569.81;4954219;29;1958;-69
2022/07/21 06:42:30;;;;;;;;;;;;;;;32.00;30.34;99562.94;4937194;29;1313;-68
2022/07/21 06:44:58;;;;;;;;;;;;;;;32.28;30.38;99577.25;4954389;29;855;-71
2022/07/21 06:47:40;;;;;;;;;;;;;;;32.31;29.49;99579.00;4954501;29;881;-70
2022/07/21 06:50:11;;;;;;;;;;;;;;;32.07;29.77;99573.66;4954078;29;921;-71
2022/07/21 06:52:37;;;;;;;;;;;;;;;32.05;30.47;99574.25;4954043;29;894;-71
2022/07/21 06:55:05;;;;;;;;;;;;;;;32.29;29.88;99575.19;4954456;29;1076;-74
2022/07/21 07:09:43;;;;;;;;;;;;;;;32.68;28.63;99559.81;4953890;29;633;-71
2022/07/21 07:12:13;;;;;;;;;;;;;;;32.45;30.13;99568.22;4953938;29;862;-68
2022/07/21 07:14:41;;;;;;;;;;;;;;;32.71;28.51;99570.16;4936135;29;1396;-77
2022/07/21 07:17:23;;;;;;;;;;;;;;;32.51;29.38;99568.06;4936582;29;859;-70
2022/07/21 07:19:50;;;;;;;;;;;;;;;32.59;29.83;99565.31;4953447;28;1898;-71
2022/07/21 07:22:18;;;;;;;;;;;;;;;33.14;28.47;99568.66;4953753;29;835;-71
2022/07/21 07:24:45;;;;;;;;;;;;;;;33.14;28.75;99560.06;4936300;29;1080;-71
2022/07/21 07:39:41;;;;;;;;;;;;;;;33.40;29.24;99563.94;4952875;29;1965;-69
2022/07/21 07:42:34;;;;;;;;;;;;;;;33.46;28.58;99567.41;4953750;29;922;-68
2022/07/21 07:45:01;;;;;;;;;;;;;;;33.53;28.94;99566.66;4953464;29;827;-68
2022/07/21 07:50:30;;;;;;;;;;;;;;;33.63;28.24;99560.38;4953484;29;611;-70
2022/07/21 07:52:56;;;;;;;;;;;;;;;33.80;28.39;99572.06;4953285;29;925;-70
2022/07/21 07:55:27;;;;;;;;;;;;;;;34.03;27.66;99560.59;4953326;29;867;-71
2022/07/21 07:57:56;;;;;;;;;;;;;;;34.00;27.98;99572.47;4953464;29;844;-68
2022/07/21 08:00:25;;;;;;;;;;;;;;;34.71;27.54;99579.09;4953249;29;1978;-68
2022/07/21 08:02:51;;;;;;;;;;;;;;;34.89;26.53;99580.03;4953296;29;863;-71
2022/07/21 08:17:30;;;;;;;;;;;;;;;35.87;25.67;99587.97;4953731;29;614;-68
2022/07/21 08:20:14;;;;;;;;;;;;;;;35.79;25.25;99601.63;4953288;29;1895;-70
2022/07/21 08:22:40;;;;;;;;;;;;;;;35.66;25.48;99605.56;4953071;29;866;-68
2022/07/21 08:25:06;;;;;;;;;;;;;;;36.00;25.68;99609.94;4953002;29;856;-69
2022/07/21 08:39:44;;;;;;;;;;;;;;;36.65;24.76;99608.25;4955945;29;1996;-67
2022/07/21 08:42:11;;;;;;;;;;;;;;;37.20;24.55;99609.94;4956712;29;894;-68
2022/07/21 08:44:37;;;;;;;;;;;;;;;37.29;23.94;99606.34;4956320;29;846;-68
2022/07/21 08:47:04;;;;;;;;;;;;;;;37.07;24.31;99608.16;4956367;29;808;-68
2022/07/21 08:49:31;;;;;;;;;;;;;;;36.99;24.16;99611.09;4956398;29;827;-68
2022/07/21 08:51:58;;;;;;;;;;;;;;;37.06;24.76;99597.97;4956203;29;875;-68
2022/07/21 08:54:24;;;;;;;;;;;;;;;37.07;24.23;99598.75;4939079;29;1197;-68
2022/07/21 08:56:51;;;;;;;;;;;;;;;36.90;25.12;99600.28;4956108;29;906;-67
2022/07/21 08:59:19;;;;;;;;;;;;;;;36.44;25.31;99605.72;4956154;29;1898;-69
2022/07/21 09:14:08;;;;;;;;;;;;;;;35.98;26.65;99592.50;4956201;29;602;-68
2022/07/21 09:16:39;;;;;;;;;;;;;;;35.50;26.66;99590.47;4955799;29;855;-68
2022/07/21 09:19:06;;;;;;;;;;;;;;;35.18;27.60;99580.50;4956127;29;1952;-68
2022/07/21 09:24:39;;;;;;;;;;;;;;;34.97;27.29;99571.38;4947950;29;1040;-69
2022/07/21 09:27:06;;;;;;;;;;;;;;;35.21;28.25;99572.06;4955612;29;863;-68
2022/07/21 09:29:43;;;;;;;;;;;;;;;35.42;26.75;99581.16;4955837;29;882;-68
2022/07/21 09:32:18;;;;;;;;;;;;;;;35.48;25.91;99584.53;4955538;29;851;-67
2022/07/21 09:34:46;;;;;;;;;;;;;;;35.26;26.85;99583.34;4955451;29;879;-68
2022/07/21 09:37:13;;;;;;;;;;;;;;;35.23;26.53;99587.38;4955383;29;815;-68
2022/07/21 09:42:43;;;;;;;;;;;;;;;34.92;27.63;99575.22;4955361;29;611;-68
2022/07/21 09:45:11;;;;;;;;;;;;;;;34.76;28.07;99586.00;4955269;28;878;-69
2022/07/21 09:47:38;;;;;;;;;;;;;;;34.89;27.80;99582.91;4955312;28;890;-68
2022/07/21 09:50:06;;;;;;;;;;;;;;;34.60;27.62;99582.38;4955227;28;866;-68
2022/07/21 09:52:35;;;;;;;;;;;;;;;34.36;27.98;99584.50;4955151;28;938;-67
2022/07/21 09:55:03;;;;;;;;;;;;;;;34.30;28.10;99580.31;4955538;28;980;-71
2022/07/21 09:57:31;;;;;;;;;;;;;;;34.18;27.48;99574.19;4954068;29;1213;-68
2022/07/21 09:59:58;;;;;;;;;;;;;;;34.10;28.18;99582.03;4953671;29;1887;-68
2022/07/21 10:02:26;;;;;;;;;;;;;;;33.92;28.12;99584.69;4955016;28;863;-68
2022/07/21 10:33:20;;;;;;;;;;;;;;;34.07;28.18;99572.44;5403905;23;1617;-67
2022/07/21 10:35:48;;;;;;;;;;;;;;;34.19;27.91;99563.50;4954468;28;814;-68
2022/07/21 10:38:25;;;;;;;;;;;;;;;34.54;27.80;99571.09;4954591;28;874;-68
2022/07/21 10:40:52;;;;;;;;;;;;;;;34.90;27.44;99563.56;4954298;28;1966;-68
2022/07/21 10:43:25;;;;;;;;;;;;;;;35.18;27.56;99559.63;4954316;28;811;-68
2022/07/21 10:45:54;;;;;;;;;;;;;;;35.27;27.34;99566.84;4954093;28;1097;-68
2022/07/21 10:51:24;;;;;;;;;;;;;;;35.12;26.82;99559.84;4954149;29;653;-68
2022/07/21 10:54:10;;;;;;;;;;;;;;;35.28;26.87;99565.53;4952888;29;1285;-68
2022/07/21 10:56:37;;;;;;;;;;;;;;;35.47;26.94;99562.91;4949615;28;1256;-68
2022/07/21 10:59:04;;;;;;;;;;;;;;;35.08;26.17;99556.59;4952750;29;1977;-69
2022/07/21 11:01:30;;;;;;;;;;;;;;;34.64;26.61;99556.94;4953995;28;854;-69
2022/07/21 11:04:16;;;;;;;;;;;;;;;35.18;26.79;99551.00;4952516;29;1276;-69
2022/07/21 11:06:56;;;;;;;;;;;;;;;35.86;26.35;99557.69;4953932;28;870;-69
2022/07/21 11:09:23;;;;;;;;;;;;;;;36.14;25.70;99555.75;4953866;28;934;-70
2022/07/21 11:12:06;;;;;;;;;;;;;;;36.48;25.86;99551.41;4954018;28;878;-69
2022/07/21 11:14:48;;;;;;;;;;;;;;;36.87;25.41;99554.63;4953828;28;823;-66
2022/07/21 11:17:25;;;;;;;;;;;;;;;37.06;25.11;99557.66;4953701;28;835;-68
2022/07/21 11:19:52;;;;;;;;;;;;;;;37.15;27.42;99559.88;4953890;28;1890;-67
2022/07/21 11:22:23;;;;;;;;;;;;;;;36.72;28.27;99555.56;4953713;28;916;-69
2022/07/21 11:24:57;;;;;;;;;;;;;;;35.03;30.28;99546.06;4953719;28;807;-69
2022/07/21 11:27:25;;;;;;;;;;;;;;;33.73;32.39;99567.84;4953543;28;872;-69
2022/07/21 11:29:53;;;;;;;;;;;;;;;33.48;33.08;99561.09;4953644;28;882;-69
2022/07/21 11:32:20;;;;;;;;;;;;;;;34.23;32.34;99566.75;4953490;28;1048;-70
2022/07/21 11:35:00;;;;;;;;;;;;;;;35.55;30.68;99566.50;4953368;28;1368;-70
2022/07/21 11:37:32;;;;;;;;;;;;;;;36.71;29.55;99560.56;4953537;28;858;-69
2022/07/21 11:39:59;;;;;;;;;;;;;;;37.34;28.53;99562.13;4952253;29;1935;-68
2022/07/21 11:42:27;;;;;;;;;;;;;;;37.84;27.90;99563.13;4953482;28;803;-66
2022/07/21 11:44:54;;;;;;;;;;;;;;;38.25;28.04;99564.19;4952206;29;1237;-66
2022/07/21 11:50:56;;;;;;;;;;;;;;;37.57;28.62;99567.56;4953506;29;670;-69
2022/07/21 11:53:23;;;;;;;;;;;;;;;36.61;29.95;99570.44;4953836;28;866;-69
2022/07/21 11:55:50;;;;;;;;;;;;;;;35.85;30.45;99567.69;4953965;28;791;-69
2022/07/21 11:58:17;;;;;;;;;;;;;;;34.83;32.11;99570.09;4953499;28;804;-69
2022/07/21 12:00:46;;;;;;;;;;;;;;;34.49;33.06;99563.44;4953421;28;1965;-70
2022/07/21 12:03:13;;;;;;;;;;;;;;;34.72;32.68;99560.56;4953542;28;811;-69
2022/07/21 12:05:40;;;;;;;;;;;;;;;35.85;31.87;99547.56;4953227;29;839;-69
2022/07/21 12:08:07;;;;;;;;;;;;;;;35.09;31.71;99558.13;4955334;28;918;-70
2022/07/21 12:10:34;;;;;;;;;;;;;;;34.69;32.53;99566.69;4957048;28;850;-69
2022/07/21 12:13:06;;;;;;;;;;;;;;;34.86;32.85;99551.72;4955787;29;1526;-70
2022/07/21 12:15:36;;;;;;;;;;;;;;;35.30;32.33;99557.84;4955650;29;831;-73
2022/07/21 12:18:07;;;;;;;;;;;;;;;35.58;32.62;99565.34;4956916;28;791;-70
2022/07/21 12:20:39;;;;;;;;;;;;;;;36.62;31.19;99555.50;4957112;28;1930;-76
2022/07/21 12:23:19;;;;;;;;;;;;;;;37.27;29.79;99562.22;4957485;28;800;-71
2022/07/21 12:25:46;;;;;;;;;;;;;;;37.92;28.72;99560.88;4956918;28;835;-70
2022/07/21 12:28:23;;;;;;;;;;;;;;;38.47;28.00;99561.47;4956758;28;850;-69
2022/07/21 12:31:09;;;;;;;;;;;;;;;37.93;28.19;99560.25;4955859;28;1314;-74
2022/07/21 12:33:37;;;;;;;;;;;;;;;38.31;28.09;99570.41;4956594;28;1092;-71
2022/07/21 12:36:09;;;;;;;;;;;;;;;37.97;28.88;99572.13;4955577;29;1229;-70
2022/07/21 12:38:43;;;;;;;;;;;;;;;37.71;28.83;99570.06;4956529;28;827;-69
2022/07/21 12:41:10;;;;;;;;;;;;;;;35.75;30.76;99575.41;4956545;28;838;-70
2022/07/21 12:43:37;;;;;;;;;;;;;;;33.86;33.58;99577.59;4956514;28;811;-69
2022/07/21 12:46:08;;;;;;;;;;;;;;;34.59;32.93;99572.25;4956394;28;826;-71
2022/07/21 12:48:36;;;;;;;;;;;;;;;36.27;30.47;99564.06;4956419;28;874;-69
2022/07/21 12:51:12;;;;;;;;;;;;;;;36.73;30.64;99569.38;4956293;28;870;-71
2022/07/21 12:53:49;;;;;;;;;;;;;;;35.48;30.64;99572.31;4955042;29;1319;-72
2022/07/21 12:56:31;;;;;;;;;;;;;;;34.05;32.63;99566.53;4956320;28;799;-70
2022/07/21 12:59:03;;;;;;;;;;;;;;;33.31;34.27;99579.59;4956144;28;1886;-69
2022/07/21 13:01:33;;;;;;;;;;;;;;;32.23;36.83;99583.13;4956204;28;863;-68
2022/07/21 13:04:21;;;;;;;;;;;;;;;31.97;37.81;99578.34;4956108;28;823;-70
2022/07/21 13:06:50;;;;;;;;;;;;;;;31.24;38.91;99575.06;4956068;28;870;-69
2022/07/21 13:09:16;;;;;;;;;;;;;;;30.74;38.96;99567.00;4956056;28;862;-70
2022/07/21 13:11:46;;;;;;;;;;;;;;;30.23;40.10;99558.63;4954624;29;1202;-72
2022/07/21 13:14:13;;;;;;;;;;;;;;;29.83;40.85;99564.25;4956270;28;863;-68
2022/07/21 13:16:45;;;;;;;;;;;;;;;29.65;41.42;99567.88;4956375;28;830;-71
2022/07/21 13:19:12;;;;;;;;;;;;;;;29.36;42.42;99569.59;4955328;28;1907;-71
2022/07/21 13:21:39;;;;;;;;;;;;;;;29.24;42.48;99566.91;4954561;29;1288;-69
2022/07/21 13:24:05;;;;;;;;;;;;;;;29.25;42.96;99579.06;4955754;28;800;-76
2022/07/21 13:26:32;;;;;;;;;;;;;;;29.43;42.84;99578.28;4954641;29;1012;-68
2022/07/21 13:29:00;;;;;;;;;;;;;;;30.90;40.30;99570.88;4955757;28;811;-70
2022/07/21 13:31:27;;;;;;;;;;;;;;;31.37;39.60;99579.97;4955505;28;791;-68
2022/07/21 13:33:54;;;;;;;;;;;;;;;30.82;40.62;99589.16;4955341;28;1410;-68
2022/07/21 13:36:20;;;;;;;;;;;;;;;30.13;41.99;99586.03;4955578;28;878;-68
2022/07/21 13:38:47;;;;;;;;;;;;;;;29.92;42.60;99583.00;4954145;29;1911;-70
2022/07/21 13:41:16;;;;;;;;;;;;;;;29.88;42.66;99586.16;4955419;28;870;-70
2022/07/21 13:46:50;;;;;;;;;;;;;;;31.13;40.95;99588.28;4954449;29;1159;-71
2022/07/21 14:01:36;;;;;;;;;;;;;;;33.95;35.54;99597.13;4955638;29;630;-73
2022/07/21 14:04:03;;;;;;;;;;;;;;;34.08;35.29;99588.31;4955196;28;815;-70
2022/07/21 14:18:40;;;;;;;;;;;;;;;32.87;36.86;99602.47;4955057;29;605;-72
2022/07/21 14:21:07;;;;;;;;;;;;;;;32.79;37.35;99606.59;4954977;28;1899;-70
2022/07/21 14:23:36;;;;;;;;;;;;;;;32.60;37.81;99596.19;4954707;28;874;-69
2022/07/21 14:26:03;;;;;;;;;;;;;;;32.49;38.59;99607.91;4954653;28;871;-69
2022/07/21 14:28:28;;;;;;;;;;;;;;;32.23;38.85;99608.88;4954568;28;806;-70
2022/07/21 14:30:59;;;;;;;;;;;;;;;32.05;39.27;99599.16;4953803;28;850;-71
2022/07/21 14:33:32;;;;;;;;;;;;;;;31.88;39.82;99599.59;4953457;28;1212;-70
2022/07/21 14:36:01;;;;;;;;;;;;;;;31.65;39.53;99591.56;4954436;28;1224;-71
2022/07/21 14:38:32;;;;;;;;;;;;;;;31.08;41.14;99594.84;4954470;28;800;-70
2022/07/21 14:40:58;;;;;;;;;;;;;;;30.50;41.83;99596.50;4954317;28;1977;-69
2022/07/21 14:43:25;;;;;;;;;;;;;;;29.74;43.80;99603.75;4954351;28;890;-70
2022/07/21 14:45:58;;;;;;;;;;;;;;;29.40;44.38;99607.06;4954380;28;827;-68
2022/07/21 14:48:25;;;;;;;;;;;;;;;28.79;45.66;99609.38;4954256;28;819;-69
2022/07/21 14:50:52;;;;;;;;;;;;;;;28.75;46.06;99600.38;4954162;28;868;-69
2022/07/21 14:53:19;;;;;;;;;;;;;;;29.09;45.38;99604.38;4954281;28;815;-70
2022/07/21 14:55:56;;;;;;;;;;;;;;;29.27;44.96;99605.66;4954079;28;847;-70
2022/07/21 14:58:56;;;;;;;;;;;;;;;29.50;45.04;99600.44;4954055;28;811;-73
2022/07/21 15:04:42;;;;;;;;;;;;;;;29.31;45.50;99602.53;4953885;29;1034;-70
2022/07/21 15:07:08;;;;;;;;;;;;;;;29.37;45.54;99602.47;4953963;28;866;-71
2022/07/21 15:09:35;;;;;;;;;;;;;;;29.19;45.68;99609.66;4953827;28;851;-70
2022/07/21 15:12:05;;;;;;;;;;;;;;;29.15;45.97;99609.22;4953891;28;827;-69
2022/07/21 15:14:41;;;;;;;;;;;;;;;29.05;45.87;99598.19;4954143;28;819;-71
2022/07/21 15:17:07;;;;;;;;;;;;;;;28.89;46.42;99607.69;4953786;28;831;-71
2022/07/21 15:19:34;;;;;;;;;;;;;;;29.10;46.41;99603.06;4953741;28;1910;-72
2022/07/21 15:22:01;;;;;;;;;;;;;;;29.44;45.23;99601.84;4953668;28;860;-70
2022/07/21 15:24:30;;;;;;;;;;;;;;;29.79;44.46;99605.75;4953741;28;882;-69
2022/07/21 15:26:55;;;;;;;;;;;;;;;29.90;44.02;99603.50;4953817;28;926;-69
2022/07/21 15:29:21;;;;;;;;;;;;;;;29.80;43.67;99605.19;4953664;28;847;-70
2022/07/21 15:31:47;;;;;;;;;;;;;;;29.59;44.44;99602.13;4953603;28;835;-70
2022/07/21 15:34:13;;;;;;;;;;;;;;;29.47;44.77;99601.53;4953580;28;1418;-71
2022/07/21 15:36:40;;;;;;;;;;;;;;;29.26;45.51;99609.06;4953768;28;827;-70
2022/07/21 15:39:06;;;;;;;;;;;;;;;29.05;46.52;99611.66;4953787;28;1910;-70
2022/07/21 15:41:36;;;;;;;;;;;;;;;28.69;47.76;99606.13;4956070;28;870;-70
2022/07/21 15:44:02;;;;;;;;;;;;;;;28.44;48.27;99611.00;4960016;28;795;-70
2022/07/21 15:46:28;;;;;;;;;;;;;;;27.88;48.94;99587.47;4958710;29;1051;-72
2022/07/21 15:48:53;;;;;;;;;;;;;;;27.74;49.04;99619.84;4959985;28;819;-70
2022/07/21 15:51:19;;;;;;;;;;;;;;;27.52;49.30;99612.22;4959791;28;812;-73
2022/07/21 15:53:47;;;;;;;;;;;;;;;27.34;49.66;99619.28;4960053;28;1032;-70
2022/07/21 15:56:13;;;;;;;;;;;;;;;27.18;49.81;99620.09;4958526;28;1193;-70
2022/07/21 15:59:33;;;;;;;;;;;;;;;27.11;50.00;99617.84;4959621;28;904;-69
2022/07/21 16:01:25;;;;;;;;;;;;;;;27.24;50.19;99612.38;4959652;28;882;-69